• Join FlightAware (Why Join?)
  • Login
  • US Flag 
02:06AM EDT


 

Airport Tracker/Info


-or-


 

Live Flight TrackerFlight Track Log ✈ N143DE ✈ 08-May-2013 ✈ KAOH - KTRI

Flight Track Log - Related Links

Times and Time Zones

All times are in EDT time to prevent confusion due to time zone crossing. See the N143DE flight status page for this flight to view local times or setup timezone preferences in your user account.

Time Position Orientation Groundspeed Altitude Reporting Facility
EDT Latitude Longitude Course Direction KTS MPH feet Rate Location/Type
03:43PM 40.6683 -83.9658 156° South 134 154 3,800  Level Indianapolis Center
03:44PM 40.6208 -83.9383 156° South 184 212 5,200 1,620 Climbing Indianapolis Center
03:45PM 40.5636 -83.9069 157° South 187 215 7,200 1,860 Climbing Indianapolis Center
03:46PM 40.5131 -83.8772 156° South 195 224 9,100 1,740 Climbing Indianapolis Center
03:47PM 40.4594 -83.8594 166° South 195 224 10,900 1,680 Climbing Indianapolis Center
03:48PM 40.4050 -83.8553 177° South 194 223 12,600 1,380 Climbing Indianapolis Center
03:49PM 40.3489 -83.8414 169° South 202 232 13,800 1,200 Climbing Indianapolis Center
03:50PM 40.2917 -83.8228 166° South 209 241 15,100 1,200 Climbing Indianapolis Center
03:51PM 40.2333 -83.8103 171° South 210 242 16,300 1,200 Climbing Indianapolis Center
03:52PM 40.1644 -83.7997 173° South 213 245 17,600 1,080 Climbing Indianapolis Center
03:53PM 40.1069 -83.7911 173° South 207 238 18,600 900 Climbing Indianapolis Center
03:54PM 40.0483 -83.7689 164° South 216 249 19,500 840 Climbing Indianapolis Center
03:55PM 39.9911 -83.7439 161° South 216 249 20,400 840 Climbing Indianapolis Center
03:56PM 39.9356 -83.7153 158° South 214 246 21,300 780 Climbing Indianapolis Center
03:57PM 39.8794 -83.6861 158° South 216 249 22,100 840 Climbing Indianapolis Center
03:58PM 39.8131 -83.6536 159° South 218 251 23,100 720 Climbing Indianapolis Center
03:59PM 39.7558 -83.6267 160° South 219 252 23,700 600 Climbing Indianapolis Center
04:00PM 39.6981 -83.6008 161° South 219 252 24,400 600 Climbing Indianapolis Center
04:01PM 39.6383 -83.5753 162° South 223 257 25,000 360 Climbing Indianapolis Center
04:02PM 39.5764 -83.5475 161° South 229 264 25,200  Climbing Indianapolis Center
04:03PM 39.4947 -83.5106 161° South 261 300 25,100 -60 Descending Indianapolis Center
04:04PM 39.4222 -83.4772 160° South 272 313 25,100  Level Indianapolis Center
04:05PM 39.3492 -83.4425 160° South 279 321 25,100  Level Indianapolis Center
04:06PM 39.2728 -83.4089 161° South 285 328 25,100  Level Indianapolis Center
04:07PM 39.1981 -83.3753 161° South 282 325 25,100  Level Indianapolis Center
04:08PM 39.1233 -83.3394 160° South 286 329 25,100  Level Indianapolis Center
04:10PM 39.0483 -83.3053 161° South 284 327 25,100  Level Indianapolis Center
04:11PM 38.9603 -83.2658 161° South 286 329 25,100  Level Indianapolis Center
04:12PM 38.8853 -83.2325 161° South 284 327 25,100  Level Indianapolis Center
04:13PM 38.8086 -83.1994 161° South 286 329 25,100  Level Indianapolis Center
04:14PM 38.7347 -83.1644 160° South 286 329 25,100  Level Indianapolis Center
04:15PM 38.6586 -83.1311 161° South 289 333 25,100  Level Indianapolis Center
04:16PM 38.5736 -83.0931 161° South 287 330 25,100  Level Indianapolis Center
04:18PM 38.4219 -83.0258 161° South 288 331 25,100  Level Indianapolis Center
04:19PM 38.3458 -82.9936 162° South 288 331 25,100  Level Indianapolis Center
04:20PM 38.2681 -82.9600 161° South 294 338 25,100  Level Indianapolis Center
04:21PM 38.1786 -82.9186 160° South 293 337 25,100  Level Indianapolis Center
04:22PM 38.1000 -82.8933 166° South 291 335 25,100 -180 Level Indianapolis Center
04:23PM 38.0194 -82.8686 166° South 294 338 24,800 -480 Descending Indianapolis Center
04:24PM 37.9353 -82.8456 168° South 305 351 24,200 -300 Descending Indianapolis Center
04:25PM 37.8531 -82.8192 166° South 304 350 24,200 -540 Level Indianapolis Center
04:26PM 37.7589 -82.7903 166° South 299 344 23,200 -1,200 Descending Indianapolis Center
04:27PM 37.6775 -82.7658 167° South 299 344 21,800 -1,260 Descending Indianapolis Center
04:28PM 37.5958 -82.7419 167° South 301 346 20,600 -1,260 Descending Indianapolis Center
04:29PM 37.5197 -82.7183 166° South 286 329 19,300 -1,380 Descending Indianapolis Center
04:30PM 37.4453 -82.6964 167° South 274 315 17,800 -1,380 Descending Indianapolis Center
04:31PM 37.3706 -82.6750 167° South 275 316 16,500 -1,440 Descending Indianapolis Center
04:32PM 37.2861 -82.6489 166° South 268 308 14,900 -1,560 Descending Indianapolis Center
04:33PM 37.2131 -82.6283 167° South 267 307 13,300 -1,560 Descending Indianapolis Center
04:34PM 37.1417 -82.6069 167° South 264 304 11,700 -1,140 Descending Indianapolis Center
04:35PM 37.0728 -82.5853 166° South 257 296 11,000 -360 Descending Indianapolis Center
04:36PM 37.0167 -82.5669 165° South 219 252 11,000  Level Indianapolis Center
04:37PM 36.9631 -82.5514 167° South 201 231 11,000  Level Indianapolis Center
04:38PM 36.8986 -82.5333 167° South 201 231 11,000  Level Indianapolis Center
04:39PM 36.8603 -82.5236 169° South 202 232 11,000 -300 Level Atlanta Center
04:40PM 36.8036 -82.5067 167° South 202 232 10,500 -960 Descending Atlanta Center
04:41PM 36.7408 -82.4897 168° South 221 254 9,100 -1,260 Descending Atlanta Center
04:42PM 36.6922 -82.4389 140° Southeast 215 247 8,000 -1,140 Descending Atlanta Center
04:43PM 36.6397 -82.4139 159° South 208 239 6,900 -1,200 Descending Atlanta Center
04:44PM 36.5833 -82.4075 175° South 203 234 5,700 -1,200 Descending Atlanta Center
04:47PM 36.4752 -82.4074 180° South  Level Estimated
04:54PM 36.4752 -82.4074 180° South  Level Estimated
04:55PM 36.4752 -82.4074 180° South  Level Estimated
04:56PM 36.4752 -82.4074 180° South  Level Estimated